Time;durP1;ratioP1;P1;durP2;ratioP2;P2;SDS_P1;SDS_P2;PMS_P1;PMS_P2;Temp;Humidity;BMP_temperature;BMP_pressure;BME280_temperature;BME280_humidity;BME280_pressure;Samples;Min_cycle;Max_cycle;Signal;HPM_P1;HPM_P2
2023/03/11 00:02:23;;;;;;;3.43;1.40;;;1.80;99.90;;;;;;5078191;28;20238;-82
2023/03/11 00:04:48;;;;;;;2.93;1.43;;;1.90;99.90;;;;;;5060314;28;20228;-81
2023/03/11 00:07:14;;;;;;;2.40;1.47;;;1.90;99.90;;;;;;5060499;28;20175;-81
2023/03/11 00:09:39;;;;;;;5.20;1.17;;;1.90;99.90;;;;;;5078671;28;20174;-81
2023/03/11 00:12:05;;;;;;;3.03;1.13;;;1.90;99.90;;;;;;5079433;28;20229;-81
2023/03/11 00:14:31;;;;;;;6.37;1.50;;;1.90;99.90;;;;;;5060866;28;20183;-81
2023/03/11 00:16:57;;;;;;;9.23;1.50;;;1.90;99.90;;;;;;5078015;28;20268;-81
2023/03/11 00:19:23;;;;;;;4.33;1.40;;;1.90;99.90;;;;;;5060576;28;20171;-81
2023/03/11 00:21:48;;;;;;;3.73;1.40;;;1.90;99.90;;;;;;5059672;28;20221;-81
2023/03/11 00:24:14;;;;;;;5.63;1.73;;;1.90;99.90;;;;;;5077911;28;20171;-82
2023/03/11 00:26:40;;;;;;;1.23;1.03;;;1.90;99.90;;;;;;5077297;28;20253;-82
2023/03/11 00:29:05;;;;;;;2.83;1.60;;;1.90;99.90;;;;;;5059219;28;20202;-81
2023/03/11 00:31:31;;;;;;;4.13;1.17;;;1.90;99.90;;;;;;5059291;28;20226;-82
2023/03/11 00:33:57;;;;;;;10.83;1.90;;;1.90;99.90;;;;;;5058275;28;20189;-82
2023/03/11 00:36:32;;;;;;;10.37;1.57;;;1.90;99.90;;;;;;5077465;28;20179;-81
2023/03/11 00:39:00;;;;;;;3.03;1.20;;;1.90;99.90;;;;;;5059627;28;20166;-81
2023/03/11 00:41:27;;;;;;;8.50;1.60;;;1.90;99.90;;;;;;5063367;28;20210;-82
2023/03/11 00:43:52;;;;;;;8.00;1.30;;;1.90;99.90;;;;;;5072656;28;20174;-81
2023/03/11 00:46:18;;;;;;;2.10;1.13;;;2.00;99.90;;;;;;5090895;28;20178;-82
2023/03/11 00:48:43;;;;;;;9.47;1.47;;;1.90;99.90;;;;;;5072989;28;20174;-82
2023/03/11 00:51:13;;;;;;;3.37;1.20;;;1.90;99.90;;;;;;5072714;28;20308;-82
2023/03/11 00:53:39;;;;;;;7.43;1.73;;;1.90;99.90;;;;;;5086902;28;20239;-81
2023/03/11 00:56:10;;;;;;;5.57;1.33;;;1.90;99.90;;;;;;5062092;28;20244;-81
2023/03/11 00:58:36;;;;;;;2.27;1.30;;;1.90;99.90;;;;;;5062301;28;20167;-81
2023/03/11 01:01:28;;;;;;;3.10;1.40;;;1.90;99.90;;;;;;5062182;28;20765;-81
2023/03/11 01:03:54;;;;;;;5.10;1.50;;;1.80;99.90;;;;;;5056675;28;20231;-81
2023/03/11 01:06:19;;;;;;;1.87;1.20;;;1.90;99.90;;;;;;5061402;28;20175;-81
2023/03/11 01:08:45;;;;;;;5.30;1.53;;;1.90;99.90;;;;;;5079677;28;20163;-81
2023/03/11 01:11:10;;;;;;;6.13;1.43;;;1.90;99.90;;;;;;5060160;28;20195;-82
2023/03/11 01:13:37;;;;;;;2.57;1.33;;;1.90;99.90;;;;;;5061022;28;20175;-82
2023/03/11 01:16:03;;;;;;;3.23;1.40;;;1.90;99.90;;;;;;5061193;28;20199;-82
2023/03/11 01:18:28;;;;;;;5.40;1.50;;;1.90;99.90;;;;;;5061366;28;20236;-81
2023/03/11 01:20:54;;;;;;;7.23;1.70;;;1.90;99.90;;;;;;5079639;28;20190;-80
2023/03/11 01:23:20;;;;;;;6.00;1.70;;;1.90;99.90;;;;;;5061158;28;20207;-82
2023/03/11 01:25:45;;;;;;;4.60;1.03;;;1.90;99.90;;;;;;5060548;28;20175;-81
2023/03/11 01:28:11;;;;;;;3.93;1.53;;;1.90;99.90;;;;;;5077559;28;20194;-81
2023/03/11 01:30:38;;;;;;;7.13;1.00;;;1.90;99.90;;;;;;5059782;28;20167;-82
2023/03/11 01:33:06;;;;;;;3.03;1.30;;;1.90;99.90;;;;;;5078647;28;20547;-81
2023/03/11 01:35:31;;;;;;;5.80;1.23;;;1.90;99.90;;;;;;5061235;28;20568;-82
2023/03/11 01:37:58;;;;;;;6.00;1.70;;;1.90;99.90;;;;;;5059850;28;20206;-82
2023/03/11 01:40:28;;;;;;;4.70;1.23;;;1.90;99.90;;;;;;5060129;28;20198;-81
2023/03/11 01:42:54;;;;;;;2.43;1.07;;;1.90;99.90;;;;;;5060248;28;20761;-82
2023/03/11 01:45:40;;;;;;;3.00;1.17;;;1.90;99.90;;;;;;5061867;28;20198;-81
2023/03/11 01:48:07;;;;;;;2.17;1.23;;;1.90;99.90;;;;;;5063465;28;20183;-81
2023/03/11 01:50:41;;;;;;;8.17;2.97;;;1.90;99.90;;;;;;5062802;28;20178;-82
2023/03/11 01:53:08;;;;;;;5.93;1.37;;;1.90;99.90;;;;;;5081426;28;20178;-81
2023/03/11 01:55:34;;;;;;;10.73;1.63;;;1.90;99.90;;;;;;5063539;28;20171;-82
2023/03/11 01:58:04;;;;;;;7.03;1.53;;;1.90;99.90;;;;;;5082036;28;20646;-82
2023/03/11 02:00:30;;;;;;;9.90;2.03;;;1.90;99.90;;;;;;5063772;28;20172;-82
2023/03/11 02:02:59;;;;;;;7.33;2.13;;;1.90;99.90;;;;;;5063721;28;20207;-81
2023/03/11 02:05:25;;;;;;;6.00;2.40;;;1.90;99.90;;;;;;5064114;28;20266;-82
2023/03/11 02:07:52;;;;;;;6.20;2.07;;;1.90;99.90;;;;;;5063356;28;20202;-82
2023/03/11 02:10:18;;;;;;;8.80;2.37;;;1.80;99.90;;;;;;5064776;28;20178;-82
2023/03/11 02:12:46;;;;;;;7.67;2.10;;;1.80;99.90;;;;;;5064382;28;20210;-82
2023/03/11 02:15:12;;;;;;;10.23;2.20;;;1.80;99.90;;;;;;5065062;28;20242;-81
2023/03/11 02:17:40;;;;;;;9.53;2.37;;;1.80;99.90;;;;;;5064539;28;20197;-83
2023/03/11 02:20:30;;;;;;;8.97;2.43;;;1.80;99.90;;;;;;5095588;28;20243;-82
2023/03/11 02:22:58;;;;;;;8.97;1.97;;;1.80;99.90;;;;;;5082346;28;20202;-81
2023/03/11 02:25:41;;;;;;;11.13;1.93;;;1.80;99.90;;;;;;5091078;28;20167;-81
2023/03/11 02:28:10;;;;;;;7.20;1.57;;;1.80;99.90;;;;;;5063255;28;20190;-81
2023/03/11 02:30:38;;;;;;;6.80;1.73;;;1.80;99.90;;;;;;5063335;28;20236;-82
2023/03/11 02:33:04;;;;;;;5.13;1.30;;;1.70;99.90;;;;;;5079583;28;20189;-81
2023/03/11 02:35:30;;;;;;;8.10;1.80;;;1.70;99.90;;;;;;5079356;28;20171;-81
2023/03/11 02:37:56;;;;;;;8.70;1.60;;;1.70;99.90;;;;;;5061288;28;20270;-81
2023/03/11 02:40:21;;;;;;;8.40;1.77;;;1.70;99.90;;;;;;5062931;28;20664;-82
2023/03/11 02:42:48;;;;;;;7.70;1.70;;;1.70;99.90;;;;;;5079477;28;20211;-81
2023/03/11 02:45:17;;;;;;;6.03;1.67;;;1.70;99.90;;;;;;5079655;28;20175;-81
2023/03/11 02:47:42;;;;;;;7.70;1.50;;;1.60;99.90;;;;;;5061974;28;20631;-82
2023/03/11 02:50:12;;;;;;;4.77;1.40;;;1.60;99.90;;;;;;5061206;28;20179;-81
2023/03/11 02:52:38;;;;;;;8.03;1.70;;;1.60;99.90;;;;;;5061779;28;20195;-81
2023/03/11 02:55:04;;;;;;;4.43;1.33;;;1.60;99.90;;;;;;5079266;28;20182;-81
2023/03/11 02:57:30;;;;;;;7.17;1.30;;;1.60;99.90;;;;;;5078747;28;20172;-82
2023/03/11 02:59:55;;;;;;;8.70;1.50;;;1.50;99.90;;;;;;5079185;28;20177;-81
2023/03/11 03:02:21;;;;;;;4.40;1.23;;;1.50;99.90;;;;;;5061658;28;20218;-81
2023/03/11 03:04:46;;;;;;;4.50;1.40;;;1.40;99.90;;;;;;5079614;28;20167;-81
2023/03/11 03:07:12;;;;;;;11.93;1.77;;;1.40;99.90;;;;;;5079601;28;20217;-82
2023/03/11 03:09:38;;;;;;;5.20;1.23;;;1.40;99.90;;;;;;5079817;28;20189;-80
2023/03/11 03:12:04;;;;;;;6.87;1.40;;;1.30;99.90;;;;;;5061756;28;20199;-82
2023/03/11 03:14:30;;;;;;;5.30;1.43;;;1.30;99.90;;;;;;5079230;28;20190;-81
2023/03/11 03:16:56;;;;;;;8.40;1.77;;;1.30;99.90;;;;;;5060832;28;20195;-81
2023/03/11 03:19:21;;;;;;;5.00;1.30;;;1.30;99.90;;;;;;5060535;28;20262;-81
2023/03/11 03:21:48;;;;;;;3.50;1.37;;;1.20;99.90;;;;;;5078427;28;20211;-81
2023/03/11 03:24:14;;;;;;;8.00;1.63;;;1.20;99.90;;;;;;5061662;28;20604;-82
2023/03/11 03:26:39;;;;;;;2.80;1.60;;;1.20;99.90;;;;;;5061412;28;20171;-81
2023/03/11 03:29:05;;;;;;;6.07;1.60;;;1.10;99.90;;;;;;5078921;28;20179;-82
2023/03/11 03:31:31;;;;;;;5.57;1.60;;;1.10;99.90;;;;;;5077298;28;20194;-81
2023/03/11 03:33:57;;;;;;;6.13;1.27;;;1.10;99.90;;;;;;5078087;28;20271;-81
2023/03/11 03:36:23;;;;;;;7.23;0.90;;;1.10;99.90;;;;;;5059570;28;20673;-81
2023/03/11 03:38:55;;;;;;;8.83;1.67;;;1.00;99.90;;;;;;5076609;28;20175;-82
2023/03/11 03:41:21;;;;;;;1.67;1.10;;;1.00;99.90;;;;;;5058808;28;20206;-82
2023/03/11 03:43:46;;;;;;;6.90;1.57;;;0.90;99.90;;;;;;5076737;28;20175;-82
2023/03/11 03:46:12;;;;;;;4.57;1.33;;;0.90;99.90;;;;;;5077649;28;20174;-81
2023/03/11 03:48:38;;;;;;;4.47;1.47;;;0.90;99.90;;;;;;5077269;28;20197;-82
2023/03/11 03:51:05;;;;;;;7.27;1.93;;;0.80;99.90;;;;;;5057715;28;20195;-81
2023/03/11 03:53:33;;;;;;;9.57;1.50;;;0.80;99.90;;;;;;5058908;28;20228;-82
2023/03/11 03:56:05;;;;;;;3.83;0.90;;;0.80;99.90;;;;;;5076634;28;20232;-81
2023/03/11 03:58:30;;;;;;;7.73;1.70;;;0.80;99.90;;;;;;5078048;28;20206;-81
2023/03/11 04:00:57;;;;;;;4.43;1.40;;;0.80;99.90;;;;;;5076823;28;20195;-82
2023/03/11 04:03:24;;;;;;;7.03;1.47;;;0.80;99.90;;;;;;5058455;28;20202;-81
2023/03/11 04:05:50;;;;;;;5.83;1.20;;;0.80;99.90;;;;;;5077772;28;20626;-82
2023/03/11 04:08:16;;;;;;;3.33;1.10;;;0.80;99.90;;;;;;5077682;28;20179;-81
2023/03/11 04:10:41;;;;;;;3.73;1.30;;;0.70;99.90;;;;;;5059808;28;20194;-81
2023/03/11 04:13:07;;;;;;;2.77;1.07;;;0.70;99.90;;;;;;5059579;28;20209;-81
2023/03/11 04:15:32;;;;;;;4.17;1.30;;;0.70;99.90;;;;;;5078030;28;20214;-81
2023/03/11 04:17:58;;;;;;;6.13;2.00;;;0.80;99.90;;;;;;5059975;28;20203;-81
2023/03/11 04:20:23;;;;;;;4.60;1.30;;;0.70;99.90;;;;;;5077536;28;20190;-82
2023/03/11 04:22:49;;;;;;;4.90;1.33;;;0.70;99.90;;;;;;5078674;28;20218;-82
2023/03/11 04:25:14;;;;;;;6.83;2.10;;;0.70;99.90;;;;;;5060247;28;20274;-83
2023/03/11 04:27:44;;;;;;;6.20;1.53;;;0.60;99.90;;;;;;5058921;28;20205;-81
2023/03/11 04:30:11;;;;;;;11.50;1.93;;;0.60;99.90;;;;;;5076052;28;20194;-82
2023/03/11 04:32:36;;;;;;;3.40;1.47;;;0.60;99.90;;;;;;5076536;28;20293;-81
2023/03/11 04:35:03;;;;;;;4.17;1.87;;;0.60;99.90;;;;;;5076406;28;20347;-82
2023/03/11 04:37:29;;;;;;;3.23;0.90;;;0.60;99.90;;;;;;5059352;28;20182;-81
2023/03/11 04:39:54;;;;;;;5.07;1.53;;;0.60;99.90;;;;;;5057657;28;20559;-81
2023/03/11 04:42:20;;;;;;;2.10;0.90;;;0.50;99.90;;;;;;5059184;28;20210;-82
2023/03/11 04:44:46;;;;;;;4.67;1.30;;;0.60;99.90;;;;;;5075557;28;20174;-81
2023/03/11 04:47:11;;;;;;;2.17;1.10;;;0.50;99.90;;;;;;5058011;28;20198;-81
2023/03/11 04:49:37;;;;;;;8.33;1.37;;;0.50;99.90;;;;;;5058542;28;20181;-81
2023/03/11 04:52:02;;;;;;;5.83;1.50;;;0.50;99.90;;;;;;5077626;28;20202;-81
2023/03/11 04:54:28;;;;;;;4.13;1.33;;;0.50;99.90;;;;;;5078132;28;20620;-81
2023/03/11 04:56:54;;;;;;;1.63;1.03;;;0.50;99.90;;;;;;5058913;28;20266;-81
2023/03/11 04:59:19;;;;;;;5.23;1.13;;;0.50;99.90;;;;;;5077935;28;20190;-82
2023/03/11 05:01:45;;;;;;;3.00;1.23;;;0.50;99.90;;;;;;5059043;28;20206;-82
2023/03/11 05:04:11;;;;;;;3.17;1.50;;;0.40;99.90;;;;;;5076096;28;20190;-81
2023/03/11 05:06:37;;;;;;;6.07;1.50;;;0.50;99.90;;;;;;5058699;28;20269;-81
2023/03/11 05:09:03;;;;;;;1.90;1.27;;;0.40;99.90;;;;;;5075387;28;20205;-81
2023/03/11 05:11:29;;;;;;;3.83;0.83;;;0.40;99.90;;;;;;5057066;28;20582;-81
2023/03/11 05:13:55;;;;;;;5.87;1.30;;;0.40;99.90;;;;;;5075947;28;20254;-82
2023/03/11 05:16:20;;;;;;;2.87;1.00;;;0.40;99.90;;;;;;5075894;28;20588;-82
2023/03/11 05:18:46;;;;;;;4.27;1.03;;;0.40;99.90;;;;;;5056955;28;20202;-82
2023/03/11 05:21:11;;;;;;;8.57;1.60;;;0.50;99.90;;;;;;5061565;28;20190;-82
2023/03/11 05:23:37;;;;;;;4.50;1.40;;;0.50;99.90;;;;;;5062077;28;20178;-82
2023/03/11 05:26:03;;;;;;;6.30;1.10;;;0.50;99.90;;;;;;5061996;28;20265;-81
2023/03/11 05:28:28;;;;;;;7.27;1.60;;;0.50;99.90;;;;;;5062469;28;20190;-82
2023/03/11 05:30:54;;;;;;;3.37;1.33;;;0.50;99.90;;;;;;5062769;28;20205;-82
2023/03/11 05:33:19;;;;;;;4.87;1.53;;;0.50;99.90;;;;;;5061160;28;20178;-82
2023/03/11 05:35:45;;;;;;;4.20;1.40;;;0.60;99.90;;;;;;5080604;28;20187;-83
2023/03/11 05:38:10;;;;;;;4.30;2.07;;;0.60;99.90;;;;;;5062716;28;20179;-82
2023/03/11 05:40:36;;;;;;;5.07;1.40;;;0.60;99.90;;;;;;5063461;28;20217;-82
2023/03/11 05:43:01;;;;;;;2.67;1.50;;;0.50;99.90;;;;;;5078908;28;20297;-82
2023/03/11 05:45:27;;;;;;;4.37;1.37;;;0.50;99.90;;;;;;5061158;28;20179;-82
2023/03/11 05:47:53;;;;;;;4.10;1.27;;;0.50;99.90;;;;;;5061778;28;20186;-81
2023/03/11 05:50:18;;;;;;;3.27;1.33;;;0.50;99.90;;;;;;5063149;28;20262;-82
2023/03/11 05:52:44;;;;;;;6.50;1.23;;;0.50;99.90;;;;;;5082503;28;20191;-82
2023/03/11 05:55:11;;;;;;;6.73;1.40;;;0.50;99.90;;;;;;5082193;28;20174;-82
2023/03/11 05:57:37;;;;;;;5.10;1.67;;;0.50;99.90;;;;;;5081501;28;20571;-82
2023/03/11 06:00:11;;;;;;;3.50;1.53;;;0.50;99.90;;;;;;5063723;28;20194;-81
2023/03/11 06:02:40;;;;;;;5.57;1.93;;;0.50;99.90;;;;;;5062601;28;20773;-81
2023/03/11 06:05:06;;;;;;;3.87;1.20;;;0.50;99.90;;;;;;5063294;28;20262;-81
2023/03/11 06:07:34;;;;;;;2.77;1.10;;;0.50;99.90;;;;;;5062624;28;20252;-82
2023/03/11 06:10:00;;;;;;;6.00;1.27;;;0.50;99.90;;;;;;5078657;28;20163;-82
2023/03/11 06:12:25;;;;;;;2.57;1.27;;;0.50;99.90;;;;;;5060064;28;20332;-82
2023/03/11 06:14:52;;;;;;;5.30;1.27;;;0.40;99.90;;;;;;5079127;28;20174;-82
2023/03/11 06:17:18;;;;;;;4.97;1.17;;;0.50;99.90;;;;;;5077524;28;20191;-82
2023/03/11 06:19:43;;;;;;;6.90;1.30;;;0.40;99.90;;;;;;5078161;28;20553;-82
2023/03/11 06:22:09;;;;;;;2.87;1.37;;;0.40;99.90;;;;;;5062034;28;20209;-82
2023/03/11 06:24:35;;;;;;;4.60;1.50;;;0.40;99.90;;;;;;5062475;28;20178;-82
2023/03/11 06:27:01;;;;;;;3.83;1.37;;;0.40;99.90;;;;;;5063192;28;20182;-82
2023/03/11 06:29:28;;;;;;;2.60;1.20;;;0.40;99.90;;;;;;5063152;28;20213;-82
2023/03/11 06:31:54;;;;;;;1.60;0.93;;;0.40;99.90;;;;;;5080264;28;20191;-82
2023/03/11 06:34:19;;;;;;;4.50;1.37;;;0.40;99.90;;;;;;5080280;28;20224;-82
2023/03/11 06:36:45;;;;;;;3.50;1.10;;;0.40;99.90;;;;;;5079938;28;20171;-82
2023/03/11 06:39:13;;;;;;;6.80;1.57;;;0.40;99.90;;;;;;5061283;28;20175;-83
2023/03/11 06:41:38;;;;;;;5.33;1.67;;;0.30;99.90;;;;;;5079555;28;20535;-82
2023/03/11 06:44:04;;;;;;;4.37;1.40;;;0.30;99.90;;;;;;5079752;28;20256;-82
2023/03/11 06:46:30;;;;;;;3.23;1.00;;;0.30;99.90;;;;;;5061812;28;20171;-82
2023/03/11 06:48:56;;;;;;;5.07;1.37;;;0.20;99.90;;;;;;5061982;28;20198;-82
2023/03/11 06:51:21;;;;;;;2.77;1.47;;;0.20;99.90;;;;;;5080479;28;20260;-83
2023/03/11 06:53:49;;;;;;;6.27;1.67;;;0.20;99.90;;;;;;5061502;28;20170;-83
2023/03/11 06:56:14;;;;;;;7.03;1.50;;;0.00;99.90;;;;;;5080142;28;20640;-83
2023/03/11 06:58:41;;;;;;;5.80;1.80;;;0.20;99.90;;;;;;5062480;28;20190;-83
2023/03/11 07:01:16;;;;;;;7.07;1.57;;;0.20;99.90;;;;;;5062476;28;20236;-83
2023/03/11 07:03:42;;;;;;;2.97;1.23;;;0.20;99.90;;;;;;5063342;28;20178;-83
2023/03/11 07:06:19;;;;;;;8.40;1.80;;;0.10;99.90;;;;;;5062531;28;20175;-83
2023/03/11 07:08:47;;;;;;;5.40;1.60;;;0.10;99.90;;;;;;5080618;28;20165;-84
2023/03/11 07:11:17;;;;;;;5.57;1.73;;;0.10;99.90;;;;;;5061331;28;20205;-83
2023/03/11 07:13:43;;;;;;;6.70;2.00;;;0.10;99.90;;;;;;5059733;28;20643;-84
2023/03/11 07:16:19;;;;;;;4.27;1.90;;;0.20;99.90;;;;;;5058750;28;20181;-82
2023/03/11 07:18:46;;;;;;;4.27;1.80;;;0.20;99.90;;;;;;5091483;28;20254;-81
2023/03/11 07:21:14;;;;;;;2.47;1.80;;;0.20;99.90;;;;;;5075408;28;20198;-81
2023/03/11 07:23:40;;;;;;;4.53;1.73;;;0.30;99.90;;;;;;5057300;28;20219;-80
2023/03/11 07:26:09;;;;;;;7.37;1.90;;;0.30;99.90;;;;;;5057064;28;20184;-80
2023/03/11 07:28:34;;;;;;;7.70;1.67;;;0.40;99.90;;;;;;5057408;28;20190;-81
2023/03/11 07:31:04;;;;;;;7.73;1.77;;;0.40;99.90;;;;;;5075621;28;20214;-81
2023/03/11 07:33:30;;;;;;;4.20;1.70;;;0.50;99.90;;;;;;5075180;28;20158;-81
2023/03/11 07:35:56;;;;;;;6.83;2.00;;;0.50;99.90;;;;;;5075604;28;20210;-81
2023/03/11 07:38:21;;;;;;;7.03;2.27;;;0.50;99.90;;;;;;5075279;28;20182;-80
2023/03/11 07:40:56;;;;;;;4.20;1.87;;;0.50;99.90;;;;;;5075238;28;20194;-81
2023/03/11 07:43:21;;;;;;;6.93;1.50;;;0.60;99.90;;;;;;5074887;28;20193;-80
2023/03/11 07:45:47;;;;;;;11.80;2.40;;;0.80;99.90;;;;;;5074751;28;20190;-80
2023/03/11 07:48:13;;;;;;;3.93;1.87;;;0.80;99.90;;;;;;5057836;28;20549;-80
2023/03/11 07:50:38;;;;;;;4.93;1.40;;;0.90;99.90;;;;;;5057666;28;20264;-80
2023/03/11 07:53:04;;;;;;;12.77;2.10;;;1.00;99.90;;;;;;5057434;28;20226;-80
2023/03/11 07:55:29;;;;;;;7.47;2.03;;;1.10;99.90;;;;;;5075215;28;20175;-80
2023/03/11 07:57:55;;;;;;;7.40;2.20;;;1.20;99.90;;;;;;5056824;28;20178;-80
2023/03/11 08:00:21;;;;;;;8.17;1.80;;;1.30;99.90;;;;;;5074777;28;20650;-80
2023/03/11 08:02:46;;;;;;;6.13;1.97;;;1.30;99.90;;;;;;5075092;28;20210;-80
2023/03/11 08:05:12;;;;;;;3.83;1.40;;;1.40;99.90;;;;;;5056818;28;20178;-80
2023/03/11 08:07:37;;;;;;;5.83;1.93;;;1.40;99.90;;;;;;5075101;28;20703;-80
2023/03/11 08:10:03;;;;;;;4.33;1.50;;;1.40;99.90;;;;;;5056825;28;20198;-80
2023/03/11 08:12:29;;;;;;;4.97;1.63;;;1.50;99.90;;;;;;5056604;28;20202;-80
2023/03/11 08:14:54;;;;;;;6.17;1.40;;;1.50;99.90;;;;;;5074589;28;20178;-80
2023/03/11 08:17:20;;;;;;;5.60;1.80;;;1.50;99.90;;;;;;5057200;28;20193;-81
2023/03/11 08:19:47;;;;;;;7.57;1.70;;;1.70;99.90;;;;;;5057271;28;20316;-80
2023/03/11 08:22:13;;;;;;;6.47;2.20;;;1.70;99.90;;;;;;5074996;28;20289;-80
2023/03/11 08:24:38;;;;;;;4.83;1.57;;;1.70;99.90;;;;;;5074957;28;20194;-80
2023/03/11 08:27:04;;;;;;;9.73;1.67;;;1.80;99.90;;;;;;5057439;28;20213;-80
2023/03/11 08:29:30;;;;;;;2.23;1.00;;;1.90;99.90;;;;;;5075594;28;20179;-80
2023/03/11 08:31:55;;;;;;;3.30;1.10;;;1.90;99.90;;;;;;5077834;28;20205;-84
2023/03/11 08:34:21;;;;;;;4.90;1.67;;;2.00;99.90;;;;;;5062466;28;20171;-83
2023/03/11 08:36:46;;;;;;;4.47;1.73;;;2.00;99.90;;;;;;5062936;28;20170;-83
2023/03/11 08:39:12;;;;;;;3.57;1.10;;;2.00;99.90;;;;;;5067112;28;20209;-83
2023/03/11 08:41:38;;;;;;;3.80;1.10;;;2.10;99.90;;;;;;5075140;28;20209;-83
2023/03/11 08:44:04;;;;;;;4.50;1.00;;;2.10;99.90;;;;;;5080455;28;20217;-84
2023/03/11 08:46:33;;;;;;;1.63;1.00;;;2.20;99.90;;;;;;5060847;28;20178;-82
2023/03/11 08:48:59;;;;;;;6.47;1.40;;;2.30;99.90;;;;;;5060430;28;20178;-82
2023/03/11 08:51:26;;;;;;;3.87;1.57;;;2.40;99.90;;;;;;5079527;28;20191;-82
2023/03/11 08:53:52;;;;;;;3.50;1.73;;;2.40;99.90;;;;;;5079656;28;20182;-83
2023/03/11 08:56:17;;;;;;;6.60;2.20;;;2.50;99.90;;;;;;5064425;28;20175;-82
2023/03/11 08:58:43;;;;;;;5.53;2.07;;;2.50;99.90;;;;;;5083615;28;20640;-82
2023/03/11 09:01:11;;;;;;;10.57;2.60;;;2.70;99.90;;;;;;5083346;28;20187;-82
2023/03/11 09:03:37;;;;;;;7.97;2.73;;;2.70;99.90;;;;;;5083693;28;20205;-83
2023/03/11 09:06:05;;;;;;;2.63;1.20;;;2.80;99.90;;;;;;5083972;28;20171;-82
2023/03/11 09:08:31;;;;;;;4.50;1.43;;;2.90;99.90;;;;;;5083775;28;20179;-83
2023/03/11 09:10:57;;;;;;;4.60;1.30;;;3.00;99.90;;;;;;5083058;28;20619;-83
2023/03/11 09:13:22;;;;;;;10.57;1.53;;;3.00;99.90;;;;;;5064540;28;20598;-83
2023/03/11 09:15:49;;;;;;;3.97;0.97;;;3.10;99.90;;;;;;5083030;28;20183;-83
2023/03/11 09:18:16;;;;;;;3.97;1.50;;;3.20;99.90;;;;;;5065414;28;20226;-82
2023/03/11 09:20:42;;;;;;;2.90;1.07;;;3.20;99.90;;;;;;5064476;28;20182;-83
2023/03/11 09:23:10;;;;;;;4.87;1.10;;;3.30;99.90;;;;;;5082863;28;20213;-83
2023/03/11 09:25:35;;;;;;;2.60;1.40;;;3.30;99.90;;;;;;5064023;28;20179;-83
2023/03/11 09:28:01;;;;;;;7.10;1.60;;;3.40;99.90;;;;;;5082099;28;20174;-83
2023/03/11 09:30:27;;;;;;;6.87;1.20;;;3.40;99.90;;;;;;5064258;28;20178;-83
2023/03/11 09:32:52;;;;;;;6.70;1.50;;;3.30;99.90;;;;;;5064925;28;20705;-83
2023/03/11 09:35:18;;;;;;;8.33;1.67;;;3.40;99.90;;;;;;5081056;28;20236;-84
2023/03/11 09:37:43;;;;;;;4.07;1.43;;;3.50;99.90;;;;;;5060631;28;20221;-82
2023/03/11 09:40:14;;;;;;;2.73;1.40;;;3.50;99.90;;;;;;5081598;28;20174;-81
2023/03/11 09:42:51;;;;;;;5.83;1.83;;;3.60;99.90;;;;;;5063143;28;20287;-82
2023/03/11 09:45:20;;;;;;;9.13;2.40;;;3.60;99.90;;;;;;5063103;28;20181;-82
2023/03/11 09:48:23;;;;;;;2.27;1.10;;;3.70;99.90;;;;;;5063876;28;20171;-83
2023/03/11 09:50:48;;;;;;;4.10;1.07;;;3.70;99.90;;;;;;5091121;28;20221;-83
2023/03/11 09:53:39;;;;;;;2.33;0.87;;;3.70;99.90;;;;;;5099673;28;20198;-83
2023/03/11 09:56:08;;;;;;;2.77;1.03;;;3.80;99.90;;;;;;5097319;28;20191;-82
2023/03/11 09:58:46;;;;;;;4.97;1.43;;;3.90;99.90;;;;;;5065430;28;20281;-83
2023/03/11 10:01:24;;;;;;;4.57;2.07;;;3.90;99.90;;;;;;5076759;28;20194;-83
2023/03/11 10:03:53;;;;;;;5.10;1.83;;;4.00;99.90;;;;;;5075179;28;20166;-83
2023/03/11 10:06:25;;;;;;;4.93;1.80;;;4.00;99.90;;;;;;5074651;28;20274;-82
2023/03/11 10:09:29;;;;;;;4.83;1.80;;;4.10;99.90;;;;;;5092529;28;20156;-82
2023/03/11 10:12:14;;;;;;;6.17;1.93;;;3.90;99.90;;;;;;5081083;28;20194;-81
2023/03/11 10:15:04;;;;;;;4.30;1.60;;;3.90;99.90;;;;;;5078430;28;20160;-81
2023/03/11 10:17:52;;;;;;;3.33;1.40;;;3.80;99.90;;;;;;5077737;28;20194;-80
2023/03/11 10:20:45;;;;;;;3.70;1.67;;;3.80;99.90;;;;;;5078183;28;20183;-80
2023/03/11 10:23:25;;;;;;;2.60;1.30;;;3.80;99.90;;;;;;5060067;28;20277;-80
2023/03/11 10:26:12;;;;;;;3.97;1.40;;;3.80;99.90;;;;;;5059943;28;20180;-80
2023/03/11 10:28:48;;;;;;;4.67;1.97;;;3.80;99.90;;;;;;5077408;28;20175;-80
2023/03/11 10:31:22;;;;;;;4.23;1.70;;;3.90;99.90;;;;;;5059347;28;20343;-80
2023/03/11 10:33:51;;;;;;;7.57;2.17;;;4.00;99.90;;;;;;5078375;28;20496;-80
2023/03/11 10:36:23;;;;;;;3.70;1.67;;;4.10;99.90;;;;;;5077524;28;20179;-80
2023/03/11 10:38:51;;;;;;;5.93;2.43;;;4.10;99.90;;;;;;5059624;28;20278;-80
2023/03/11 10:41:23;;;;;;;4.70;1.30;;;4.20;99.90;;;;;;5059147;28;20234;-80
2023/03/11 10:43:55;;;;;;;6.50;1.77;;;4.20;99.90;;;;;;5058830;28;20256;-80
2023/03/11 10:46:26;;;;;;;9.10;1.90;;;4.20;99.90;;;;;;5077060;28;20163;-80
2023/03/11 10:48:52;;;;;;;7.80;1.70;;;4.20;99.90;;;;;;5058826;28;20198;-80
2023/03/11 10:51:21;;;;;;;10.23;1.67;;;4.20;99.90;;;;;;5058688;28;20240;-80
2023/03/11 10:53:52;;;;;;;9.00;1.67;;;4.20;99.90;;;;;;5077093;28;20175;-81
2023/03/11 10:56:34;;;;;;;6.93;1.73;;;4.30;99.90;;;;;;5076988;28;20252;-80
2023/03/11 10:59:01;;;;;;;5.87;1.30;;;4.40;99.90;;;;;;5076895;28;20161;-80
2023/03/11 11:01:28;;;;;;;2.60;1.57;;;4.40;99.90;;;;;;5058454;28;20226;-79
2023/03/11 11:03:57;;;;;;;4.47;1.03;;;4.50;99.90;;;;;;5076753;28;20534;-80
2023/03/11 11:06:29;;;;;;;4.33;1.57;;;4.50;99.90;;;;;;5076337;28;20236;-80
2023/03/11 11:09:12;;;;;;;1.60;1.07;;;4.50;99.90;;;;;;5075907;28;20198;-80
2023/03/11 11:11:38;;;;;;;3.43;1.23;;;4.50;99.90;;;;;;5076445;28;20193;-80
2023/03/11 11:14:05;;;;;;;3.13;1.07;;;4.50;99.90;;;;;;5076752;28;20175;-80
2023/03/11 11:16:32;;;;;;;3.93;1.40;;;4.50;99.90;;;;;;5076435;28;20171;-80
2023/03/11 11:19:12;;;;;;;2.87;1.23;;;4.60;99.90;;;;;;5058890;28;20179;-80
2023/03/11 11:21:48;;;;;;;1.40;0.80;;;4.60;99.90;;;;;;5078011;28;20183;-80
2023/03/11 11:24:26;;;;;;;4.77;1.37;;;4.70;99.90;;;;;;5059255;28;20163;-80
2023/03/11 11:27:10;;;;;;;12.20;1.73;;;4.70;99.90;;;;;;5058064;28;20173;-80
2023/03/11 11:29:36;;;;;;;6.77;1.30;;;4.70;99.90;;;;;;5058375;28;20680;-80
2023/03/11 11:32:17;;;;;;;5.03;1.03;;;4.70;99.90;;;;;;5079294;28;20627;-82
2023/03/11 11:35:03;;;;;;;4.27;1.40;;;4.70;99.90;;;;;;5060473;28;20270;-82
2023/03/11 11:37:32;;;;;;;3.83;1.43;;;4.80;99.90;;;;;;5060856;28;20228;-82
2023/03/11 11:40:08;;;;;;;4.63;1.70;;;4.90;99.90;;;;;;5060782;28;20178;-82
2023/03/11 11:42:36;;;;;;;3.27;1.13;;;5.00;99.90;;;;;;5060267;28;20297;-82
2023/03/11 11:45:08;;;;;;;5.37;1.37;;;5.00;99.90;;;;;;5078483;28;20196;-81
2023/03/11 11:47:36;;;;;;;3.33;1.87;;;5.10;99.90;;;;;;5077825;28;20164;-82
2023/03/11 11:50:15;;;;;;;3.47;1.57;;;5.20;99.90;;;;;;5059839;28;20190;-81
2023/03/11 11:52:46;;;;;;;4.80;1.30;;;5.20;99.90;;;;;;5077100;28;20194;-81
2023/03/11 11:55:29;;;;;;;4.53;1.40;;;5.30;99.90;;;;;;5077099;28;20563;-80
2023/03/11 11:57:55;;;;;;;1.97;1.07;;;5.30;99.90;;;;;;5057888;28;20178;-80
2023/03/11 12:00:35;;;;;;;1.60;0.90;;;5.30;99.90;;;;;;5076745;28;20186;-81
2023/03/11 12:03:34;;;;;;;4.60;1.40;;;5.30;99.90;;;;;;5058236;28;20199;-82
2023/03/11 12:06:08;;;;;;;4.80;1.40;;;5.20;99.90;;;;;;5075685;28;20166;-82
2023/03/11 12:08:47;;;;;;;2.67;1.17;;;5.30;99.90;;;;;;5057677;28;20167;-82
2023/03/11 12:11:50;;;;;;;5.40;1.50;;;5.40;99.90;;;;;;5076114;28;20187;-81
2023/03/11 12:14:35;;;;;;;4.20;1.17;;;5.50;99.90;;;;;;5004240;28;20193;-80
2023/03/11 12:17:03;;;;;;;3.03;1.20;;;5.40;99.90;;;;;;5074989;28;20340;-80
2023/03/11 12:19:56;;;;;;;3.87;1.10;;;5.50;99.90;;;;;;5075820;28;20499;-80
2023/03/11 12:22:39;;;;;;;1.90;1.00;;;5.60;99.90;;;;;;5057324;28;20216;-80
2023/03/11 12:25:14;;;;;;;3.40;1.17;;;5.60;99.90;;;;;;5057147;28;20262;-80
2023/03/11 12:28:13;;;;;;;2.97;1.00;;;5.60;99.90;;;;;;5058149;28;20299;-80
2023/03/11 12:30:46;;;;;;;5.83;1.67;;;5.60;99.90;;;;;;5074383;28;20163;-81
2023/03/11 12:33:44;;;;;;;5.57;1.60;;;5.60;99.90;;;;;;5056780;28;20292;-80
2023/03/11 12:36:45;;;;;;;2.97;1.60;;;5.50;99.90;;;;;;5075942;28;20633;-79
2023/03/11 12:39:28;;;;;;;6.23;1.77;;;5.50;99.90;;;;;;4993242;28;20188;-79
2023/03/11 12:42:16;;;;;;;2.23;1.00;;;5.40;99.90;;;;;;5067505;28;20284;-79
2023/03/11 12:44:43;;;;;;;6.00;1.97;;;5.50;99.90;;;;;;5056575;28;20183;-79
2023/03/11 12:47:21;;;;;;;3.40;0.90;;;5.60;99.90;;;;;;5074694;28;20171;-79
2023/03/11 12:49:50;;;;;;;2.37;0.93;;;5.70;99.90;;;;;;5074727;28;20550;-79
2023/03/11 12:52:25;;;;;;;3.13;1.20;;;5.70;99.90;;;;;;5075179;28;20689;-79
2023/03/11 12:54:53;;;;;;;6.03;1.07;;;5.80;99.90;;;;;;5076071;28;20158;-79
2023/03/11 12:57:19;;;;;;;3.60;1.13;;;5.90;99.90;;;;;;5079047;28;20206;-79
2023/03/11 13:00:21;;;;;;;5.00;1.57;;;5.90;99.90;;;;;;5080759;28;20181;-79
2023/03/11 13:03:02;;;;;;;3.57;0.77;;;6.00;99.90;;;;;;5074267;28;20202;-79
2023/03/11 13:05:41;;;;;;;2.43;0.90;;;6.20;99.90;;;;;;5074820;28;20226;-79
2023/03/11 13:08:09;;;;;;;3.57;0.67;;;6.30;99.90;;;;;;5056248;28;20166;-79
2023/03/11 13:10:49;;;;;;;1.40;0.90;;;6.30;99.90;;;;;;5074862;28;20167;-81